createdAt,value
2023-01-19T00:01:10.903Z,62.77
2023-01-19T00:03:41.018Z,62.36
2023-01-19T00:06:12.100Z,62.35
2023-01-19T00:08:44.778Z,62.12
2023-01-19T00:11:17.591Z,61.91
2023-01-19T00:13:50.658Z,61.73
2023-01-19T00:16:23.310Z,62.09
2023-01-19T00:18:55.756Z,62.26
2023-01-19T00:21:25.877Z,62.28
2023-01-19T00:23:55.910Z,62.73
2023-01-19T00:26:28.433Z,63.04
2023-01-19T00:29:04.830Z,62.94
2023-01-19T00:31:34.961Z,62.88
2023-01-19T00:34:05.152Z,63.07
2023-01-19T00:36:35.422Z,62.93
2023-01-19T00:39:05.562Z,63.44
2023-01-19T00:41:50.702Z,63.84
2023-01-19T00:44:20.853Z,64.05
2023-01-19T00:46:50.822Z,64.06
2023-01-19T00:49:20.879Z,64.40
2023-01-19T00:51:50.861Z,64.32
2023-01-19T00:54:21.184Z,64.57
2023-01-19T00:56:54.229Z,64.52
2023-01-19T00:59:25.837Z,64.50
2023-01-19T01:01:56.036Z,64.56
2023-01-19T01:04:26.383Z,64.73
2023-01-19T01:06:56.403Z,64.58
2023-01-19T01:09:26.467Z,64.49
2023-01-19T01:12:00.561Z,64.28
2023-01-19T01:14:30.819Z,64.05
2023-01-19T01:17:03.723Z,64.01
2023-01-19T01:19:33.778Z,63.93
2023-01-19T01:22:03.945Z,63.96
2023-01-19T01:24:33.987Z,63.98
2023-01-19T01:27:07.291Z,64.11
2023-01-19T01:29:46.540Z,64.08
2023-01-19T01:32:16.861Z,64.08
2023-01-19T01:34:46.839Z,63.88
2023-01-19T01:37:16.789Z,63.86
2023-01-19T01:39:46.811Z,63.90
2023-01-19T01:42:22.071Z,63.99
2023-01-19T01:44:55.537Z,64.25
2023-01-19T01:47:32.642Z,64.43
2023-01-19T01:50:13.850Z,64.37
2023-01-19T01:53:07.656Z,64.20
2023-01-19T01:55:43.052Z,64.33
2023-01-19T01:58:17.886Z,64.36
2023-01-19T02:01:00.330Z,64.39
2023-01-19T02:03:32.676Z,64.41
2023-01-19T02:06:08.270Z,64.25
2023-01-19T02:08:57.386Z,63.93
2023-01-19T02:11:40.443Z,63.50
2023-01-19T02:14:13.295Z,63.45
2023-01-19T02:16:43.549Z,63.72
2023-01-19T02:19:19.841Z,63.76
2023-01-19T02:21:56.008Z,63.83
2023-01-19T02:24:29.457Z,64.04
2023-01-19T02:27:00.778Z,64.12
2023-01-19T02:29:31.909Z,64.41
2023-01-19T02:32:03.265Z,64.50
2023-01-19T02:34:33.526Z,64.65
2023-01-19T02:37:07.708Z,64.48
2023-01-19T02:39:45.893Z,64.97
2023-01-19T02:42:22.327Z,64.80
2023-01-19T02:44:55.640Z,64.44
2023-01-19T02:47:26.097Z,64.41
2023-01-19T02:49:59.481Z,64.58
2023-01-19T02:52:30.588Z,64.52
2023-01-19T02:55:18.220Z,64.96
2023-01-19T02:57:58.964Z,64.97
2023-01-19T03:00:40.093Z,65.17
2023-01-19T03:03:30.866Z,65.19
2023-01-19T03:06:28.707Z,65.31
2023-01-19T03:09:05.014Z,65.28
2023-01-19T03:11:42.965Z,65.46
2023-01-19T03:14:19.566Z,65.44
2023-01-19T03:16:55.159Z,65.13
2023-01-19T03:19:27.716Z,64.97
2023-01-19T03:22:01.584Z,64.65
2023-01-19T03:24:37.819Z,64.59
2023-01-19T03:27:15.106Z,64.69
2023-01-19T03:29:50.952Z,64.25
2023-01-19T03:32:25.094Z,64.31
2023-01-19T03:34:57.487Z,64.57
2023-01-19T03:37:30.215Z,64.88
2023-01-19T03:40:00.698Z,64.97
2023-01-19T03:42:33.604Z,65.06
2023-01-19T03:45:04.592Z,65.20
2023-01-19T03:47:35.394Z,65.04
2023-01-19T03:50:10.095Z,65.22
2023-01-19T03:52:40.068Z,65.15
2023-01-19T03:55:10.476Z,65.16
2023-01-19T03:57:43.143Z,64.92
2023-01-19T04:00:15.489Z,64.97
2023-01-19T04:02:45.506Z,64.82
2023-01-19T04:05:15.598Z,64.35
2023-01-19T04:07:45.843Z,64.29
2023-01-19T04:10:16.384Z,64.40
2023-01-19T04:12:49.243Z,64.34
2023-01-19T04:15:19.577Z,64.44
2023-01-19T04:17:50.851Z,64.50
2023-01-19T04:20:21.788Z,64.36
2023-01-19T04:22:51.946Z,64.49
2023-01-19T04:25:22.005Z,64.38
2023-01-19T04:27:58.466Z,64.55
2023-01-19T04:30:28.686Z,64.27
2023-01-19T04:32:59.027Z,64.36
2023-01-19T04:35:29.271Z,64.46
2023-01-19T04:37:59.375Z,64.47
2023-01-19T04:40:29.420Z,64.62
2023-01-19T04:43:02.340Z,65.00
2023-01-19T04:45:32.737Z,65.03
2023-01-19T04:48:04.238Z,64.78
2023-01-19T04:50:34.890Z,65.06
2023-01-19T04:53:04.835Z,65.23
2023-01-19T04:55:34.799Z,65.29
2023-01-19T04:58:07.491Z,64.94
2023-01-19T05:00:37.660Z,64.88
2023-01-19T05:03:07.689Z,64.87
2023-01-19T05:05:37.956Z,65.09
2023-01-19T05:08:08.392Z,65.08
2023-01-19T05:10:39.171Z,64.94
2023-01-19T05:13:11.718Z,64.75
2023-01-19T05:15:52.145Z,65.07
2023-01-19T05:18:22.147Z,65.18
2023-01-19T05:20:52.076Z,64.99
2023-01-19T05:23:32.810Z,64.76
2023-01-19T05:26:03.858Z,64.61
2023-01-19T05:28:37.262Z,64.25
2023-01-19T05:31:07.491Z,64.38
2023-01-19T05:33:37.473Z,63.89
2023-01-19T05:36:07.641Z,63.92
2023-01-19T05:38:37.670Z,63.87
2023-01-19T05:41:08.133Z,64.18
2023-01-19T05:43:41.007Z,64.04
2023-01-19T05:46:15.462Z,64.03
2023-01-19T05:48:45.497Z,63.93
2023-01-19T05:51:15.500Z,64.07
2023-01-19T05:53:45.616Z,63.80
2023-01-19T05:56:15.593Z,64.44
2023-01-19T05:58:48.174Z,64.11
2023-01-19T06:01:18.378Z,64.16
2023-01-19T06:03:48.791Z,63.90
2023-01-19T06:06:19.010Z,63.93
2023-01-19T06:08:49.069Z,63.83
2023-01-19T06:11:19.150Z,63.45
2023-01-19T06:13:51.643Z,63.26
2023-01-19T06:16:21.609Z,63.33
2023-01-19T06:18:51.621Z,63.50
2023-01-19T06:21:21.570Z,63.93
2023-01-19T06:23:51.567Z,64.13
2023-01-19T06:26:21.524Z,64.52
2023-01-19T06:28:54.403Z,64.55
2023-01-19T06:31:24.390Z,64.64
2023-01-19T06:33:54.437Z,64.58
2023-01-19T06:36:24.400Z,64.52
2023-01-19T06:38:54.294Z,64.46
2023-01-19T06:41:24.298Z,64.43
2023-01-19T06:43:57.067Z,64.41
2023-01-19T06:46:27.512Z,64.18
2023-01-19T06:48:57.857Z,64.02
2023-01-19T06:51:28.152Z,63.98
2023-01-19T06:53:58.323Z,64.21
2023-01-19T06:56:28.419Z,64.03
2023-01-19T06:59:01.394Z,64.12
2023-01-19T07:01:32.903Z,63.84
2023-01-19T07:04:02.850Z,63.91
2023-01-19T07:06:32.814Z,63.78
2023-01-19T07:09:07.133Z,63.76
2023-01-19T07:11:37.135Z,63.74
2023-01-19T07:14:09.799Z,63.81
2023-01-19T07:16:39.890Z,63.56
2023-01-19T07:19:10.814Z,63.92
2023-01-19T07:21:40.911Z,63.85
2023-01-19T07:24:11.234Z,64.00
2023-01-19T07:26:41.279Z,64.20
2023-01-19T07:29:13.904Z,64.10
2023-01-19T07:31:43.948Z,63.70
2023-01-19T07:34:13.967Z,63.63
2023-01-19T07:36:44.230Z,63.64
2023-01-19T07:39:14.395Z,63.29
2023-01-19T07:41:44.442Z,63.15
2023-01-19T07:44:17.006Z,63.34
2023-01-19T07:51:13.073Z,62.18
2023-01-19T08:00:25.494Z,56.57
2023-01-19T08:03:01.872Z,55.55
2023-01-19T08:05:32.683Z,55.95
2023-01-19T08:08:05.161Z,54.57
2023-01-19T08:10:35.384Z,52.96
2023-01-19T08:13:08.685Z,51.75
2023-01-19T08:15:41.468Z,51.58
2023-01-19T08:18:18.043Z,50.59
2023-01-19T08:20:52.517Z,50.69
2023-01-19T08:23:22.442Z,47.70
2023-01-19T08:25:52.435Z,48.70
2023-01-19T08:28:26.543Z,48.87
2023-01-19T08:31:18.326Z,49.01
2023-01-19T08:33:49.769Z,47.84
2023-01-19T08:36:19.826Z,47.03
2023-01-19T08:38:50.458Z,47.74
2023-01-19T08:41:20.571Z,45.21
2023-01-19T08:43:50.980Z,45.47
2023-01-19T08:46:23.559Z,43.45
2023-01-19T08:48:53.547Z,42.97
2023-01-19T08:51:23.722Z,43.63
2023-01-19T08:53:53.769Z,43.49
2023-01-19T08:56:23.782Z,44.23
2023-01-19T08:59:08.261Z,43.95
2023-01-19T09:01:42.139Z,44.72
2023-01-19T09:04:12.400Z,43.25
2023-01-19T09:06:42.531Z,42.62
2023-01-19T09:09:12.758Z,41.53
2023-01-19T09:11:42.743Z,41.20
2023-01-19T09:14:12.932Z,40.81
2023-01-19T09:16:45.669Z,42.46
2023-01-19T09:19:15.613Z,42.63
2023-01-19T09:21:45.672Z,43.50
2023-01-19T09:24:15.586Z,41.96
2023-01-19T09:26:45.584Z,41.09
2023-01-19T09:29:15.602Z,42.21
2023-01-19T09:31:48.911Z,41.15
2023-01-19T09:34:19.368Z,40.70
2023-01-19T09:36:50.075Z,41.36
2023-01-19T09:39:20.435Z,40.50
2023-01-19T09:42:06.062Z,39.16
2023-01-19T09:44:41.210Z,39.30
2023-01-19T09:47:22.951Z,39.05
2023-01-19T09:49:58.432Z,38.51
2023-01-19T09:52:28.521Z,38.54
2023-01-19T09:54:59.807Z,37.51
2023-01-19T09:57:32.284Z,38.42
2023-01-19T10:00:02.260Z,38.18
2023-01-19T10:02:49.660Z,36.81
2023-01-19T10:05:31.695Z,37.50
2023-01-19T10:08:21.518Z,36.44
2023-01-19T10:10:59.588Z,36.67
2023-01-19T10:13:40.407Z,35.50
2023-01-19T10:16:24.312Z,35.74
2023-01-19T10:19:00.788Z,36.95
2023-01-19T10:21:34.453Z,35.71
2023-01-19T10:24:09.608Z,35.58
2023-01-19T10:26:45.330Z,34.51
2023-01-19T10:29:24.905Z,34.61
2023-01-19T10:31:55.276Z,33.78
2023-01-19T10:34:27.879Z,32.59
2023-01-19T10:37:07.231Z,33.10
2023-01-19T10:39:38.782Z,32.52
2023-01-19T10:42:09.391Z,32.07
2023-01-19T10:44:41.431Z,31.89
2023-01-19T10:47:19.411Z,30.42
2023-01-19T10:49:52.430Z,30.12
2023-01-19T10:52:28.895Z,29.41
2023-01-19T10:55:00.176Z,29.24
2023-01-19T10:57:34.537Z,29.01
2023-01-19T11:00:05.049Z,29.17
2023-01-19T11:02:36.172Z,28.42
2023-01-19T11:05:27.257Z,28.68
2023-01-19T11:07:57.315Z,28.90
2023-01-19T11:10:30.147Z,28.57
2023-01-19T11:13:07.662Z,28.59
2023-01-19T11:15:44.504Z,27.92
2023-01-19T11:18:27.049Z,26.90
2023-01-19T11:21:02.689Z,27.09
2023-01-19T11:23:37.653Z,27.34
2023-01-19T11:26:09.119Z,27.65
2023-01-19T11:28:45.040Z,28.90
2023-01-19T11:31:35.248Z,29.21
2023-01-19T11:34:07.056Z,27.93
2023-01-19T11:36:39.977Z,28.43
2023-01-19T11:39:24.920Z,28.06
2023-01-19T11:41:57.612Z,28.13
2023-01-19T11:44:32.431Z,27.72
2023-01-19T11:47:17.852Z,27.58
2023-01-19T11:50:03.454Z,26.54
2023-01-19T11:52:43.444Z,26.62
2023-01-19T11:55:22.768Z,25.36
2023-01-19T11:57:56.045Z,25.01
2023-01-19T12:00:29.367Z,25.71
2023-01-19T12:03:06.099Z,24.79
2023-01-19T12:05:48.283Z,25.08
2023-01-19T12:08:27.155Z,26.26
2023-01-19T12:11:03.075Z,25.72
2023-01-19T12:13:34.704Z,25.54
2023-01-19T12:16:09.997Z,25.77
2023-01-19T12:18:43.448Z,25.36
2023-01-19T12:21:15.549Z,25.56
2023-01-19T12:23:59.192Z,25.66
2023-01-19T12:26:33.856Z,26.75
2023-01-19T12:29:13.838Z,25.92
2023-01-19T12:31:45.630Z,25.11
2023-01-19T12:34:46.713Z,26.09
2023-01-19T12:37:43.968Z,26.59
2023-01-19T12:40:35.719Z,26.59
2023-01-19T12:43:08.852Z,27.00
2023-01-19T12:45:40.168Z,28.02
2023-01-19T12:48:27.616Z,28.27
2023-01-19T12:50:57.593Z,28.94
2023-01-19T12:53:27.695Z,31.12
2023-01-19T12:56:10.118Z,32.60
2023-01-19T12:58:40.269Z,33.27
2023-01-19T13:01:21.107Z,33.04
2023-01-19T13:04:06.745Z,33.60
2023-01-19T13:07:10.360Z,33.72
2023-01-19T13:09:43.284Z,33.81
2023-01-19T13:12:23.152Z,34.28
2023-01-19T13:14:53.516Z,35.03
2023-01-19T13:17:33.178Z,34.00
2023-01-19T13:20:07.912Z,32.23
2023-01-19T13:22:53.735Z,33.93
2023-01-19T13:25:36.704Z,33.50
2023-01-19T13:28:13.560Z,33.81
2023-01-19T13:31:03.907Z,34.42
2023-01-19T13:33:45.197Z,33.47
2023-01-19T13:36:32.605Z,33.12
2023-01-19T13:39:06.743Z,35.75
2023-01-19T13:41:41.827Z,37.18
2023-01-19T13:44:20.204Z,38.14
2023-01-19T13:46:50.787Z,40.54
2023-01-19T13:49:24.114Z,41.88
2023-01-19T13:52:08.221Z,42.87
2023-01-19T13:54:38.245Z,42.91
2023-01-19T13:57:08.237Z,43.26
2023-01-19T13:59:40.977Z,42.30
2023-01-19T14:02:16.929Z,41.63
2023-01-19T14:04:47.149Z,41.14
2023-01-19T14:07:26.457Z,41.80
2023-01-19T14:10:07.305Z,43.62
2023-01-19T14:12:45.583Z,45.67
2023-01-19T14:15:23.952Z,47.79
2023-01-19T14:18:25.194Z,48.80
2023-01-19T14:20:57.055Z,48.70
2023-01-19T14:23:41.988Z,48.06
2023-01-19T14:26:52.046Z,47.30
2023-01-19T14:29:26.515Z,48.17
2023-01-19T14:32:09.972Z,47.97
2023-01-19T14:34:42.024Z,48.57
2023-01-19T14:37:29.804Z,49.37
2023-01-19T14:40:04.847Z,50.61
2023-01-19T14:42:37.703Z,51.21
2023-01-19T14:45:21.316Z,49.77
2023-01-19T14:48:01.187Z,48.93
2023-01-19T14:50:35.422Z,48.98
2023-01-19T14:53:07.587Z,50.05
2023-01-19T14:55:41.396Z,50.85
2023-01-19T14:58:13.934Z,52.44
2023-01-19T15:00:43.980Z,54.08
2023-01-19T15:03:16.707Z,54.82
2023-01-19T15:05:49.548Z,55.12
2023-01-19T15:08:22.887Z,55.64
2023-01-19T15:10:52.934Z,55.82
2023-01-19T15:13:25.472Z,55.74
2023-01-19T15:15:55.784Z,55.92
2023-01-19T15:18:30.279Z,55.88
2023-01-19T15:21:02.892Z,56.20
2023-01-19T15:23:32.965Z,56.68
2023-01-19T15:26:04.075Z,56.74
2023-01-19T15:28:34.427Z,56.99
2023-01-19T15:31:04.447Z,57.36
2023-01-19T15:33:37.314Z,57.70
2023-01-19T15:36:08.400Z,57.45
2023-01-19T15:38:38.548Z,57.65
2023-01-19T15:41:15.122Z,57.77
2023-01-19T15:43:45.117Z,57.55
2023-01-19T15:46:17.480Z,57.71
2023-01-19T15:48:50.391Z,57.80
2023-01-19T15:51:22.235Z,57.95
2023-01-19T15:53:52.996Z,57.77
2023-01-19T15:56:27.670Z,57.91
2023-01-19T15:58:58.730Z,58.33
2023-01-19T16:01:32.762Z,58.27
2023-01-19T16:04:07.298Z,58.21
2023-01-19T16:06:37.245Z,58.18
2023-01-19T16:09:07.773Z,58.62
2023-01-19T16:11:38.399Z,58.66
2023-01-19T16:14:08.466Z,58.33
2023-01-19T16:16:38.707Z,58.51
2023-01-19T16:19:11.376Z,58.38
2023-01-19T16:21:41.371Z,58.52
2023-01-19T16:24:11.552Z,58.61
2023-01-19T16:26:41.543Z,59.10
2023-01-19T16:29:12.161Z,59.24
2023-01-19T16:31:45.561Z,59.25
2023-01-19T16:34:18.277Z,59.54
2023-01-19T16:36:48.333Z,59.46
2023-01-19T16:39:33.738Z,59.76
2023-01-19T16:42:04.013Z,59.73
2023-01-19T16:44:33.951Z,59.98
2023-01-19T16:47:04.289Z,59.89
2023-01-19T16:49:37.036Z,59.92
2023-01-19T16:52:07.330Z,59.94
2023-01-19T16:54:39.416Z,59.78
2023-01-19T16:57:09.471Z,60.12
2023-01-19T16:59:40.047Z,59.91
2023-01-19T17:02:11.098Z,59.80
2023-01-19T17:04:43.754Z,59.63
2023-01-19T17:07:19.388Z,59.99
2023-01-19T17:09:49.537Z,60.07
2023-01-19T17:12:19.481Z,60.20
2023-01-19T17:14:52.674Z,60.39
2023-01-19T17:17:22.867Z,60.19
2023-01-19T17:19:55.653Z,59.90
2023-01-19T17:22:25.684Z,60.00
2023-01-19T17:24:55.709Z,60.18
2023-01-19T17:27:26.162Z,59.90
2023-01-19T17:29:59.721Z,60.12
2023-01-19T17:32:30.808Z,59.91
2023-01-19T17:35:04.521Z,59.40
2023-01-19T17:37:34.527Z,59.18
2023-01-19T17:40:04.574Z,58.96
2023-01-19T17:42:42.518Z,58.69
2023-01-19T17:45:27.783Z,58.82
2023-01-19T17:47:57.821Z,58.73
2023-01-19T17:50:30.428Z,59.10
2023-01-19T17:53:00.421Z,59.15
2023-01-19T17:55:30.479Z,59.42
2023-01-19T17:58:03.672Z,58.85
2023-01-19T18:00:33.686Z,58.62
2023-01-19T18:03:03.898Z,58.41
2023-01-19T18:05:36.572Z,58.18
2023-01-19T18:08:10.272Z,58.05
2023-01-19T18:10:40.946Z,58.13
2023-01-19T18:13:11.051Z,58.34
2023-01-19T18:15:42.728Z,58.74
2023-01-19T18:18:12.774Z,58.68
2023-01-19T18:20:45.845Z,58.94
2023-01-19T18:23:16.138Z,59.09
2023-01-19T18:25:48.606Z,59.05
2023-01-19T18:28:18.614Z,58.97
2023-01-19T18:30:49.178Z,58.82
2023-01-19T18:33:19.343Z,58.67
2023-01-19T18:35:54.981Z,58.86
2023-01-19T18:38:27.402Z,58.81
2023-01-19T18:41:04.190Z,58.89
2023-01-19T18:43:34.643Z,59.23
2023-01-19T18:46:05.450Z,58.89
2023-01-19T18:48:42.946Z,58.50
2023-01-19T18:51:17.623Z,58.67
2023-01-19T18:53:48.868Z,58.26
2023-01-19T18:56:20.226Z,58.22
2023-01-19T18:58:50.464Z,58.29
2023-01-19T19:01:23.629Z,58.46
2023-01-19T19:03:56.179Z,58.57
2023-01-19T19:06:31.913Z,59.05
2023-01-19T19:09:02.040Z,58.94
2023-01-19T19:11:32.234Z,58.87
2023-01-19T19:14:07.426Z,58.54
2023-01-19T19:16:39.483Z,58.76
2023-01-19T19:19:11.952Z,58.69
2023-01-19T19:21:46.926Z,58.96
2023-01-19T19:24:19.922Z,59.03
2023-01-19T19:26:55.156Z,59.46
2023-01-19T19:29:26.252Z,59.77
2023-01-19T19:31:56.997Z,60.02
2023-01-19T19:34:27.968Z,59.81
2023-01-19T19:37:01.407Z,59.67
2023-01-19T19:39:34.267Z,59.43
2023-01-19T19:42:05.892Z,59.58
2023-01-19T19:44:36.154Z,59.64
2023-01-19T19:47:06.194Z,59.44
2023-01-19T19:49:39.172Z,59.18
2023-01-19T19:52:14.001Z,59.16
2023-01-19T19:54:49.057Z,59.27
2023-01-19T19:57:18.959Z,59.22
2023-01-19T19:59:51.704Z,59.32
2023-01-19T20:02:23.302Z,59.34
2023-01-19T20:04:53.231Z,59.71
2023-01-19T20:07:25.804Z,59.69
2023-01-19T20:09:56.187Z,59.54
2023-01-19T20:12:26.247Z,59.24
2023-01-19T20:14:56.174Z,59.20
2023-01-19T20:17:26.347Z,58.67
2023-01-19T20:19:56.340Z,58.64
2023-01-19T20:22:29.025Z,58.77
2023-01-19T20:24:59.196Z,58.58
2023-01-19T20:27:29.288Z,58.79
2023-01-19T20:30:00.389Z,59.25
2023-01-19T20:32:30.334Z,59.34
2023-01-19T20:35:00.289Z,59.46
2023-01-19T20:37:32.876Z,59.58
2023-01-19T20:40:02.798Z,59.51
2023-01-19T20:42:32.768Z,59.68
2023-01-19T20:45:02.774Z,59.58
2023-01-19T20:47:32.899Z,59.61
2023-01-19T20:50:02.949Z,59.81
2023-01-19T20:52:37.471Z,59.80
2023-01-19T20:55:08.938Z,59.70
2023-01-19T20:57:38.918Z,59.64
2023-01-19T21:00:10.256Z,59.68
2023-01-19T21:02:40.381Z,59.37
2023-01-19T21:05:12.236Z,59.47
2023-01-19T21:07:45.111Z,59.46
2023-01-19T21:10:16.362Z,59.21
2023-01-19T21:12:46.650Z,59.13
2023-01-19T21:15:18.064Z,59.50
2023-01-19T21:17:47.984Z,59.56
2023-01-19T21:20:18.207Z,59.49
2023-01-19T21:22:50.839Z,59.39
2023-01-19T21:25:20.971Z,59.31
2023-01-19T21:27:50.955Z,59.27
2023-01-19T21:30:23.898Z,58.93
2023-01-19T21:32:53.892Z,59.09
2023-01-19T21:35:26.682Z,59.31
2023-01-19T21:38:00.638Z,59.49
2023-01-19T21:40:30.941Z,59.62
2023-01-19T21:43:01.161Z,59.89
2023-01-19T21:45:31.355Z,59.94
2023-01-19T21:48:01.387Z,59.74
2023-01-19T21:50:31.842Z,59.65
2023-01-19T21:53:06.023Z,59.78
2023-01-19T21:55:36.786Z,59.75
2023-01-19T21:58:07.479Z,59.29
2023-01-19T22:00:37.502Z,59.08
2023-01-19T22:03:09.315Z,58.98
2023-01-19T22:05:40.084Z,59.14
2023-01-19T22:08:13.052Z,59.25
2023-01-19T22:10:43.011Z,59.26
2023-01-19T22:13:13.034Z,58.96
2023-01-19T22:15:43.107Z,58.96
2023-01-19T22:18:13.313Z,58.41
2023-01-19T22:20:43.424Z,58.79
2023-01-19T22:23:16.130Z,58.97
2023-01-19T22:25:46.224Z,59.24
2023-01-19T22:28:16.279Z,59.05
2023-01-19T22:30:46.370Z,59.15
2023-01-19T22:33:16.392Z,59.34
2023-01-19T22:35:46.482Z,59.55
2023-01-19T22:38:19.155Z,59.48
2023-01-19T22:40:49.174Z,59.49
2023-01-19T22:43:19.151Z,59.28
2023-01-19T22:45:49.104Z,59.33
2023-01-19T22:48:20.179Z,59.47
2023-01-19T22:50:50.345Z,59.33
2023-01-19T22:53:22.908Z,59.55
2023-01-19T22:55:52.848Z,59.83
2023-01-19T22:58:23.006Z,59.97
2023-01-19T23:00:53.110Z,59.95
2023-01-19T23:03:23.147Z,59.87
2023-01-19T23:05:53.151Z,59.86
2023-01-19T23:08:25.896Z,59.72
2023-01-19T23:10:55.837Z,60.04
2023-01-19T23:13:25.892Z,60.06
2023-01-19T23:15:55.960Z,60.39
2023-01-19T23:18:26.133Z,60.44
2023-01-19T23:20:56.151Z,60.37
2023-01-19T23:23:29.028Z,60.32
2023-01-19T23:26:02.708Z,60.18
2023-01-19T23:28:34.135Z,59.95
2023-01-19T23:31:04.352Z,60.05
2023-01-19T23:33:34.406Z,59.83
2023-01-19T23:36:04.615Z,60.05
2023-01-19T23:38:37.296Z,60.28
2023-01-19T23:41:07.637Z,60.28
2023-01-19T23:43:37.673Z,60.26
2023-01-19T23:46:09.067Z,60.27
2023-01-19T23:48:39.350Z,60.09
2023-01-19T23:51:10.407Z,60.08
2023-01-19T23:53:43.281Z,60.00
2023-01-19T23:56:14.794Z,60.22
2023-01-19T23:58:45.224Z,60.13
